sensor_id;sensor_type;location;lat;lon;timestamp;P1;durP1;ratioP1;P2;durP2;ratioP2
25758;SDS011;13604;52.496;13.456;2023-01-09T00:01:28;33.97;;;16.52;;
25758;SDS011;13604;52.496;13.456;2023-01-09T00:03:59;28.67;;;16.17;;
25758;SDS011;13604;52.496;13.456;2023-01-09T00:06:25;35.05;;;17.80;;
25758;SDS011;13604;52.496;13.456;2023-01-09T00:08:52;34.63;;;18.17;;
25758;SDS011;13604;52.496;13.456;2023-01-09T00:11:18;34.67;;;18.25;;
25758;SDS011;13604;52.496;13.456;2023-01-09T00:13:44;36.15;;;18.23;;
25758;SDS011;13604;52.496;13.456;2023-01-09T00:16:11;35.70;;;18.83;;
25758;SDS011;13604;52.496;13.456;2023-01-09T00:18:42;35.17;;;18.73;;
25758;SDS011;13604;52.496;13.456;2023-01-09T00:21:08;38.35;;;18.52;;
25758;SDS011;13604;52.496;13.456;2023-01-09T00:23:42;35.70;;;19.23;;
25758;SDS011;13604;52.496;13.456;2023-01-09T00:26:09;37.65;;;19.55;;
25758;SDS011;13604;52.496;13.456;2023-01-09T00:28:37;35.88;;;19.10;;
25758;SDS011;13604;52.496;13.456;2023-01-09T00:31:07;34.55;;;18.33;;
25758;SDS011;13604;52.496;13.456;2023-01-09T00:36:40;39.33;;;20.20;;
25758;SDS011;13604;52.496;13.456;2023-01-09T00:39:15;40.95;;;19.65;;
25758;SDS011;13604;52.496;13.456;2023-01-09T00:41:46;42.05;;;21.25;;
25758;SDS011;13604;52.496;13.456;2023-01-09T00:44:22;45.67;;;22.17;;
25758;SDS011;13604;52.496;13.456;2023-01-09T00:46:59;38.15;;;20.30;;
25758;SDS011;13604;52.496;13.456;2023-01-09T00:49:37;37.15;;;19.98;;
25758;SDS011;13604;52.496;13.456;2023-01-09T00:52:05;38.28;;;19.98;;
25758;SDS011;13604;52.496;13.456;2023-01-09T00:54:34;39.83;;;21.58;;
25758;SDS011;13604;52.496;13.456;2023-01-09T00:57:05;38.88;;;19.85;;
25758;SDS011;13604;52.496;13.456;2023-01-09T00:59:34;42.38;;;20.98;;
25758;SDS011;13604;52.496;13.456;2023-01-09T01:02:28;38.85;;;20.63;;
25758;SDS011;13604;52.496;13.456;2023-01-09T01:04:57;43.30;;;20.73;;
25758;SDS011;13604;52.496;13.456;2023-01-09T01:07:44;35.20;;;19.98;;
25758;SDS011;13604;52.496;13.456;2023-01-09T01:10:13;40.30;;;20.13;;
25758;SDS011;13604;52.496;13.456;2023-01-09T01:12:51;35.45;;;19.33;;
25758;SDS011;13604;52.496;13.456;2023-01-09T01:15:18;38.45;;;20.45;;
25758;SDS011;13604;52.496;13.456;2023-01-09T01:17:54;40.42;;;21.25;;
25758;SDS011;13604;52.496;13.456;2023-01-09T01:20:26;43.35;;;20.95;;
25758;SDS011;13604;52.496;13.456;2023-01-09T01:23:20;40.00;;;21.88;;
25758;SDS011;13604;52.496;13.456;2023-01-09T01:25:47;41.65;;;20.98;;
25758;SDS011;13604;52.496;13.456;2023-01-09T01:28:16;43.33;;;21.60;;
25758;SDS011;13604;52.496;13.456;2023-01-09T01:30:43;43.83;;;21.65;;
25758;SDS011;13604;52.496;13.456;2023-01-09T01:33:14;44.67;;;22.58;;
25758;SDS011;13604;52.496;13.456;2023-01-09T01:35:39;45.33;;;22.20;;
25758;SDS011;13604;52.496;13.456;2023-01-09T01:38:06;45.78;;;22.95;;
25758;SDS011;13604;52.496;13.456;2023-01-09T01:40:36;43.22;;;22.38;;
25758;SDS011;13604;52.496;13.456;2023-01-09T01:43:07;42.85;;;22.02;;
25758;SDS011;13604;52.496;13.456;2023-01-09T01:45:46;46.28;;;22.38;;
25758;SDS011;13604;52.496;13.456;2023-01-09T01:48:33;44.05;;;21.73;;
25758;SDS011;13604;52.496;13.456;2023-01-09T01:51:13;44.40;;;21.92;;
25758;SDS011;13604;52.496;13.456;2023-01-09T01:53:52;48.65;;;21.95;;
25758;SDS011;13604;52.496;13.456;2023-01-09T01:56:25;43.90;;;21.90;;
25758;SDS011;13604;52.496;13.456;2023-01-09T02:01:48;55.63;;;23.75;;
25758;SDS011;13604;52.496;13.456;2023-01-09T02:04:16;52.15;;;24.17;;
25758;SDS011;13604;52.496;13.456;2023-01-09T02:06:46;51.63;;;24.60;;
25758;SDS011;13604;52.496;13.456;2023-01-09T02:09:13;47.08;;;23.75;;
25758;SDS011;13604;52.496;13.456;2023-01-09T02:11:45;45.30;;;22.25;;
25758;SDS011;13604;52.496;13.456;2023-01-09T02:14:11;51.30;;;23.92;;
25758;SDS011;13604;52.496;13.456;2023-01-09T02:16:47;48.53;;;23.83;;
25758;SDS011;13604;52.496;13.456;2023-01-09T02:22:09;44.85;;;22.42;;
25758;SDS011;13604;52.496;13.456;2023-01-09T02:36:10;50.80;;;24.15;;
25758;SDS011;13604;52.496;13.456;2023-01-09T02:39:15;51.22;;;24.15;;
25758;SDS011;13604;52.496;13.456;2023-01-09T02:42:13;53.58;;;23.95;;
25758;SDS011;13604;52.496;13.456;2023-01-09T02:44:43;52.75;;;24.77;;
25758;SDS011;13604;52.496;13.456;2023-01-09T02:49:39;58.00;;;26.13;;
25758;SDS011;13604;52.496;13.456;2023-01-09T02:52:12;52.47;;;24.88;;
25758;SDS011;13604;52.496;13.456;2023-01-09T02:55:07;56.67;;;26.45;;
25758;SDS011;13604;52.496;13.456;2023-01-09T03:02:52;60.65;;;26.73;;
25758;SDS011;13604;52.496;13.456;2023-01-09T03:05:39;59.40;;;26.92;;
25758;SDS011;13604;52.496;13.456;2023-01-09T03:08:11;55.80;;;26.08;;
25758;SDS011;13604;52.496;13.456;2023-01-09T03:10:41;57.55;;;25.33;;
25758;SDS011;13604;52.496;13.456;2023-01-09T03:13:52;60.67;;;25.67;;
25758;SDS011;13604;52.496;13.456;2023-01-09T03:16:20;58.60;;;26.38;;
25758;SDS011;13604;52.496;13.456;2023-01-09T03:18:48;55.42;;;25.88;;
25758;SDS011;13604;52.496;13.456;2023-01-09T03:21:15;62.00;;;28.45;;
25758;SDS011;13604;52.496;13.456;2023-01-09T03:23:48;60.25;;;27.42;;
25758;SDS011;13604;52.496;13.456;2023-01-09T03:26:17;61.13;;;27.50;;
25758;SDS011;13604;52.496;13.456;2023-01-09T03:28:42;56.22;;;28.02;;
25758;SDS011;13604;52.496;13.456;2023-01-09T03:31:08;59.75;;;27.33;;
25758;SDS011;13604;52.496;13.456;2023-01-09T03:33:34;59.88;;;27.35;;
25758;SDS011;13604;52.496;13.456;2023-01-09T03:35:59;58.35;;;27.52;;
25758;SDS011;13604;52.496;13.456;2023-01-09T03:38:24;59.92;;;27.13;;
25758;SDS011;13604;52.496;13.456;2023-01-09T03:40:50;59.38;;;27.70;;
25758;SDS011;13604;52.496;13.456;2023-01-09T03:43:15;57.88;;;27.17;;
25758;SDS011;13604;52.496;13.456;2023-01-09T03:45:41;55.92;;;26.88;;
25758;SDS011;13604;52.496;13.456;2023-01-09T03:48:06;53.08;;;26.38;;
25758;SDS011;13604;52.496;13.456;2023-01-09T03:50:32;48.15;;;25.33;;
25758;SDS011;13604;52.496;13.456;2023-01-09T03:52:57;46.85;;;24.20;;
25758;SDS011;13604;52.496;13.456;2023-01-09T03:55:22;51.38;;;25.42;;
25758;SDS011;13604;52.496;13.456;2023-01-09T03:57:48;50.42;;;25.48;;
25758;SDS011;13604;52.496;13.456;2023-01-09T04:00:13;49.33;;;24.50;;
25758;SDS011;13604;52.496;13.456;2023-01-09T04:02:38;51.33;;;23.08;;
25758;SDS011;13604;52.496;13.456;2023-01-09T04:05:04;46.70;;;24.80;;
25758;SDS011;13604;52.496;13.456;2023-01-09T04:07:31;53.63;;;26.15;;
25758;SDS011;13604;52.496;13.456;2023-01-09T04:09:56;46.85;;;24.52;;
25758;SDS011;13604;52.496;13.456;2023-01-09T04:12:22;44.72;;;24.17;;
25758;SDS011;13604;52.496;13.456;2023-01-09T04:14:47;45.22;;;23.38;;
25758;SDS011;13604;52.496;13.456;2023-01-09T04:17:12;44.15;;;23.52;;
25758;SDS011;13604;52.496;13.456;2023-01-09T04:19:40;44.03;;;23.52;;
25758;SDS011;13604;52.496;13.456;2023-01-09T04:22:05;45.67;;;23.13;;
25758;SDS011;13604;52.496;13.456;2023-01-09T04:24:31;41.50;;;23.05;;
25758;SDS011;13604;52.496;13.456;2023-01-09T04:26:56;41.63;;;22.75;;
25758;SDS011;13604;52.496;13.456;2023-01-09T04:29:22;44.17;;;22.67;;
25758;SDS011;13604;52.496;13.456;2023-01-09T04:31:48;45.53;;;24.83;;
25758;SDS011;13604;52.496;13.456;2023-01-09T04:34:13;39.33;;;22.52;;
25758;SDS011;13604;52.496;13.456;2023-01-09T04:36:38;44.72;;;24.00;;
25758;SDS011;13604;52.496;13.456;2023-01-09T04:39:04;44.10;;;22.10;;
25758;SDS011;13604;52.496;13.456;2023-01-09T04:41:29;42.30;;;22.02;;
25758;SDS011;13604;52.496;13.456;2023-01-09T04:44:13;40.47;;;22.67;;
25758;SDS011;13604;52.496;13.456;2023-01-09T04:46:39;40.38;;;22.13;;
25758;SDS011;13604;52.496;13.456;2023-01-09T04:49:04;39.17;;;22.25;;
25758;SDS011;13604;52.496;13.456;2023-01-09T04:51:29;41.83;;;22.65;;
25758;SDS011;13604;52.496;13.456;2023-01-09T04:53:55;43.92;;;23.02;;
25758;SDS011;13604;52.496;13.456;2023-01-09T04:56:20;39.53;;;22.58;;
25758;SDS011;13604;52.496;13.456;2023-01-09T04:58:45;45.33;;;23.95;;
25758;SDS011;13604;52.496;13.456;2023-01-09T05:01:11;39.47;;;22.70;;
25758;SDS011;13604;52.496;13.456;2023-01-09T05:03:36;45.70;;;23.38;;
25758;SDS011;13604;52.496;13.456;2023-01-09T05:06:01;45.38;;;22.67;;
25758;SDS011;13604;52.496;13.456;2023-01-09T05:08:27;37.72;;;20.83;;
25758;SDS011;13604;52.496;13.456;2023-01-09T05:10:52;41.08;;;22.95;;
25758;SDS011;13604;52.496;13.456;2023-01-09T05:13:17;39.50;;;21.65;;
25758;SDS011;13604;52.496;13.456;2023-01-09T05:15:42;45.53;;;21.70;;
25758;SDS011;13604;52.496;13.456;2023-01-09T05:18:08;38.17;;;21.55;;
25758;SDS011;13604;52.496;13.456;2023-01-09T05:20:33;40.33;;;22.10;;
25758;SDS011;13604;52.496;13.456;2023-01-09T05:22:58;37.35;;;20.52;;
25758;SDS011;13604;52.496;13.456;2023-01-09T05:25:24;36.22;;;21.65;;
25758;SDS011;13604;52.496;13.456;2023-01-09T05:27:49;44.25;;;23.50;;
25758;SDS011;13604;52.496;13.456;2023-01-09T05:30:14;37.33;;;21.52;;
25758;SDS011;13604;52.496;13.456;2023-01-09T05:32:40;41.22;;;22.38;;
25758;SDS011;13604;52.496;13.456;2023-01-09T05:35:05;40.00;;;21.83;;
25758;SDS011;13604;52.496;13.456;2023-01-09T05:37:31;41.72;;;22.65;;
25758;SDS011;13604;52.496;13.456;2023-01-09T05:39:56;41.67;;;22.98;;
25758;SDS011;13604;52.496;13.456;2023-01-09T05:42:22;42.35;;;22.30;;
25758;SDS011;13604;52.496;13.456;2023-01-09T05:44:47;42.15;;;23.52;;
25758;SDS011;13604;52.496;13.456;2023-01-09T05:47:12;39.95;;;22.95;;
25758;SDS011;13604;52.496;13.456;2023-01-09T05:49:38;46.45;;;23.90;;
25758;SDS011;13604;52.496;13.456;2023-01-09T05:54:37;46.55;;;23.17;;
25758;SDS011;13604;52.496;13.456;2023-01-09T05:57:02;45.15;;;23.30;;
25758;SDS011;13604;52.496;13.456;2023-01-09T05:59:27;41.50;;;22.45;;
25758;SDS011;13604;52.496;13.456;2023-01-09T06:01:53;42.92;;;23.05;;
25758;SDS011;13604;52.496;13.456;2023-01-09T06:04:18;53.08;;;25.35;;
25758;SDS011;13604;52.496;13.456;2023-01-09T06:06:44;52.83;;;27.98;;
25758;SDS011;13604;52.496;13.456;2023-01-09T06:09:09;47.70;;;24.77;;
25758;SDS011;13604;52.496;13.456;2023-01-09T06:11:35;48.17;;;23.85;;
25758;SDS011;13604;52.496;13.456;2023-01-09T06:14:02;49.90;;;24.02;;
25758;SDS011;13604;52.496;13.456;2023-01-09T06:16:35;56.25;;;26.17;;
25758;SDS011;13604;52.496;13.456;2023-01-09T06:19:00;58.83;;;25.63;;
25758;SDS011;13604;52.496;13.456;2023-01-09T06:21:25;48.08;;;26.17;;
25758;SDS011;13604;52.496;13.456;2023-01-09T06:23:53;52.72;;;26.67;;
25758;SDS011;13604;52.496;13.456;2023-01-09T06:26:18;55.53;;;28.70;;
25758;SDS011;13604;52.496;13.456;2023-01-09T06:28:44;54.40;;;27.45;;
25758;SDS011;13604;52.496;13.456;2023-01-09T06:31:09;53.60;;;26.02;;
25758;SDS011;13604;52.496;13.456;2023-01-09T06:33:34;51.08;;;25.60;;
25758;SDS011;13604;52.496;13.456;2023-01-09T06:36:00;53.90;;;26.35;;
25758;SDS011;13604;52.496;13.456;2023-01-09T06:38:25;53.17;;;25.73;;
25758;SDS011;13604;52.496;13.456;2023-01-09T06:40:50;58.67;;;28.83;;
25758;SDS011;13604;52.496;13.456;2023-01-09T06:43:16;61.80;;;27.60;;
25758;SDS011;13604;52.496;13.456;2023-01-09T06:45:41;60.97;;;29.83;;
25758;SDS011;13604;52.496;13.456;2023-01-09T06:48:08;56.25;;;27.58;;
25758;SDS011;13604;52.496;13.456;2023-01-09T06:50:34;54.42;;;27.17;;
25758;SDS011;13604;52.496;13.456;2023-01-09T06:53:00;61.53;;;29.15;;
25758;SDS011;13604;52.496;13.456;2023-01-09T06:55:25;65.63;;;28.42;;
25758;SDS011;13604;52.496;13.456;2023-01-09T06:57:50;56.88;;;28.52;;
25758;SDS011;13604;52.496;13.456;2023-01-09T07:00:16;54.30;;;26.70;;
25758;SDS011;13604;52.496;13.456;2023-01-09T07:02:42;54.88;;;27.63;;
25758;SDS011;13604;52.496;13.456;2023-01-09T07:05:08;56.67;;;27.75;;
25758;SDS011;13604;52.496;13.456;2023-01-09T07:07:35;59.53;;;26.92;;
25758;SDS011;13604;52.496;13.456;2023-01-09T07:10:01;61.53;;;27.48;;
25758;SDS011;13604;52.496;13.456;2023-01-09T07:12:26;61.10;;;28.30;;
25758;SDS011;13604;52.496;13.456;2023-01-09T07:14:52;63.25;;;28.50;;
25758;SDS011;13604;52.496;13.456;2023-01-09T07:17:17;61.25;;;29.20;;
25758;SDS011;13604;52.496;13.456;2023-01-09T07:19:42;61.25;;;28.63;;
25758;SDS011;13604;52.496;13.456;2023-01-09T07:22:08;64.03;;;29.17;;
25758;SDS011;13604;52.496;13.456;2023-01-09T07:24:34;59.97;;;27.73;;
25758;SDS011;13604;52.496;13.456;2023-01-09T07:27:00;60.53;;;27.27;;
25758;SDS011;13604;52.496;13.456;2023-01-09T07:29:26;67.85;;;30.35;;
25758;SDS011;13604;52.496;13.456;2023-01-09T07:31:51;67.57;;;31.05;;
25758;SDS011;13604;52.496;13.456;2023-01-09T07:34:16;59.88;;;28.20;;
25758;SDS011;13604;52.496;13.456;2023-01-09T07:36:41;60.90;;;26.15;;
25758;SDS011;13604;52.496;13.456;2023-01-09T07:39:10;61.10;;;28.52;;
25758;SDS011;13604;52.496;13.456;2023-01-09T07:41:35;62.63;;;28.70;;
25758;SDS011;13604;52.496;13.456;2023-01-09T07:44:00;62.33;;;28.33;;
25758;SDS011;13604;52.496;13.456;2023-01-09T07:46:26;69.55;;;29.30;;
25758;SDS011;13604;52.496;13.456;2023-01-09T07:48:52;61.55;;;27.60;;
25758;SDS011;13604;52.496;13.456;2023-01-09T07:51:18;58.25;;;28.00;;
25758;SDS011;13604;52.496;13.456;2023-01-09T07:53:44;71.50;;;29.15;;
25758;SDS011;13604;52.496;13.456;2023-01-09T07:56:10;60.05;;;28.02;;
25758;SDS011;13604;52.496;13.456;2023-01-09T07:58:36;60.95;;;27.02;;
25758;SDS011;13604;52.496;13.456;2023-01-09T08:01:02;60.05;;;28.30;;
25758;SDS011;13604;52.496;13.456;2023-01-09T08:03:28;67.47;;;29.85;;
25758;SDS011;13604;52.496;13.456;2023-01-09T08:05:53;59.90;;;27.25;;
25758;SDS011;13604;52.496;13.456;2023-01-09T08:08:18;59.75;;;28.42;;
25758;SDS011;13604;52.496;13.456;2023-01-09T08:10:44;68.88;;;28.77;;
25758;SDS011;13604;52.496;13.456;2023-01-09T08:13:09;61.95;;;29.17;;
25758;SDS011;13604;52.496;13.456;2023-01-09T08:15:34;57.75;;;26.52;;
25758;SDS011;13604;52.496;13.456;2023-01-09T08:18:00;61.17;;;27.27;;
25758;SDS011;13604;52.496;13.456;2023-01-09T08:20:25;56.20;;;25.98;;
25758;SDS011;13604;52.496;13.456;2023-01-09T08:22:51;55.90;;;27.75;;
25758;SDS011;13604;52.496;13.456;2023-01-09T08:25:18;61.92;;;27.70;;
25758;SDS011;13604;52.496;13.456;2023-01-09T08:27:43;63.03;;;27.77;;
25758;SDS011;13604;52.496;13.456;2023-01-09T08:30:09;58.65;;;27.13;;
25758;SDS011;13604;52.496;13.456;2023-01-09T08:32:35;61.17;;;27.05;;
25758;SDS011;13604;52.496;13.456;2023-01-09T08:35:01;62.63;;;28.33;;
25758;SDS011;13604;52.496;13.456;2023-01-09T08:37:26;60.08;;;27.50;;
25758;SDS011;13604;52.496;13.456;2023-01-09T08:39:51;57.53;;;26.77;;
25758;SDS011;13604;52.496;13.456;2023-01-09T08:42:17;59.15;;;26.25;;
25758;SDS011;13604;52.496;13.456;2023-01-09T08:45:01;53.67;;;25.63;;
25758;SDS011;13604;52.496;13.456;2023-01-09T08:47:45;57.22;;;25.60;;
25758;SDS011;13604;52.496;13.456;2023-01-09T08:50:10;57.00;;;26.65;;
25758;SDS011;13604;52.496;13.456;2023-01-09T08:52:37;51.63;;;24.55;;
25758;SDS011;13604;52.496;13.456;2023-01-09T08:55:02;55.50;;;26.00;;
25758;SDS011;13604;52.496;13.456;2023-01-09T08:57:28;54.10;;;25.02;;
25758;SDS011;13604;52.496;13.456;2023-01-09T08:59:53;46.10;;;23.00;;
25758;SDS011;13604;52.496;13.456;2023-01-09T09:02:18;54.13;;;23.88;;
25758;SDS011;13604;52.496;13.456;2023-01-09T09:04:43;54.55;;;25.40;;
25758;SDS011;13604;52.496;13.456;2023-01-09T09:07:10;52.95;;;25.90;;
25758;SDS011;13604;52.496;13.456;2023-01-09T09:09:35;48.10;;;23.15;;
25758;SDS011;13604;52.496;13.456;2023-01-09T09:12:03;50.95;;;24.15;;
25758;SDS011;13604;52.496;13.456;2023-01-09T09:14:29;49.10;;;24.02;;
25758;SDS011;13604;52.496;13.456;2023-01-09T09:17:13;45.67;;;24.30;;
25758;SDS011;13604;52.496;13.456;2023-01-09T09:19:39;44.60;;;21.77;;
25758;SDS011;13604;52.496;13.456;2023-01-09T09:22:06;45.28;;;21.85;;
25758;SDS011;13604;52.496;13.456;2023-01-09T09:24:31;43.00;;;21.13;;
25758;SDS011;13604;52.496;13.456;2023-01-09T09:26:57;42.55;;;20.90;;
25758;SDS011;13604;52.496;13.456;2023-01-09T09:29:22;44.25;;;23.15;;
25758;SDS011;13604;52.496;13.456;2023-01-09T09:31:47;43.20;;;21.50;;
25758;SDS011;13604;52.496;13.456;2023-01-09T09:34:13;42.95;;;21.33;;
25758;SDS011;13604;52.496;13.456;2023-01-09T09:36:38;47.10;;;21.65;;
25758;SDS011;13604;52.496;13.456;2023-01-09T09:39:03;43.78;;;21.65;;
25758;SDS011;13604;52.496;13.456;2023-01-09T09:41:45;43.45;;;21.15;;
25758;SDS011;13604;52.496;13.456;2023-01-09T09:44:54;39.03;;;19.73;;
25758;SDS011;13604;52.496;13.456;2023-01-09T09:47:43;41.75;;;20.13;;
25758;SDS011;13604;52.496;13.456;2023-01-09T09:53:09;39.50;;;21.23;;
25758;SDS011;13604;52.496;13.456;2023-01-09T09:55:36;40.70;;;20.73;;
25758;SDS011;13604;52.496;13.456;2023-01-09T10:01:10;39.35;;;19.75;;
25758;SDS011;13604;52.496;13.456;2023-01-09T10:03:57;34.53;;;18.65;;
25758;SDS011;13604;52.496;13.456;2023-01-09T10:06:29;35.33;;;19.05;;
25758;SDS011;13604;52.496;13.456;2023-01-09T10:14:43;32.10;;;16.73;;
25758;SDS011;13604;52.496;13.456;2023-01-09T10:17:27;28.25;;;16.25;;
25758;SDS011;13604;52.496;13.456;2023-01-09T10:25:31;27.58;;;15.88;;
25758;SDS011;13604;52.496;13.456;2023-01-09T10:34:13;24.38;;;13.35;;
25758;SDS011;13604;52.496;13.456;2023-01-09T10:39:26;19.90;;;11.90;;
25758;SDS011;13604;52.496;13.456;2023-01-09T10:42:03;21.58;;;12.52;;
25758;SDS011;13604;52.496;13.456;2023-01-09T10:47:14;20.38;;;11.93;;
25758;SDS011;13604;52.496;13.456;2023-01-09T10:49:42;18.63;;;11.45;;
25758;SDS011;13604;52.496;13.456;2023-01-09T10:52:15;18.67;;;11.25;;
25758;SDS011;13604;52.496;13.456;2023-01-09T11:00:04;19.08;;;11.02;;
25758;SDS011;13604;52.496;13.456;2023-01-09T11:02:32;19.15;;;11.23;;
25758;SDS011;13604;52.496;13.456;2023-01-09T11:04:59;14.93;;;9.50;;
25758;SDS011;13604;52.496;13.456;2023-01-09T11:07:28;14.75;;;9.95;;
25758;SDS011;13604;52.496;13.456;2023-01-09T11:10:00;15.50;;;9.48;;
25758;SDS011;13604;52.496;13.456;2023-01-09T11:12:32;16.02;;;9.02;;
25758;SDS011;13604;52.496;13.456;2023-01-09T11:15:16;16.80;;;9.82;;
25758;SDS011;13604;52.496;13.456;2023-01-09T11:17:45;16.10;;;9.63;;
25758;SDS011;13604;52.496;13.456;2023-01-09T11:20:29;17.38;;;9.68;;
25758;SDS011;13604;52.496;13.456;2023-01-09T11:22:55;17.00;;;9.52;;
25758;SDS011;13604;52.496;13.456;2023-01-09T11:25:26;15.48;;;9.25;;
25758;SDS011;13604;52.496;13.456;2023-01-09T11:30:27;14.40;;;8.45;;
25758;SDS011;13604;52.496;13.456;2023-01-09T11:32:56;12.35;;;8.20;;
25758;SDS011;13604;52.496;13.456;2023-01-09T11:35:23;13.48;;;7.70;;
25758;SDS011;13604;52.496;13.456;2023-01-09T11:38:04;15.68;;;8.73;;
25758;SDS011;13604;52.496;13.456;2023-01-09T11:40:45;13.18;;;7.72;;
25758;SDS011;13604;52.496;13.456;2023-01-09T11:43:15;13.13;;;7.63;;
25758;SDS011;13604;52.496;13.456;2023-01-09T11:45:57;13.27;;;6.55;;
25758;SDS011;13604;52.496;13.456;2023-01-09T11:48:27;10.23;;;6.30;;
25758;SDS011;13604;52.496;13.456;2023-01-09T11:50:58;8.98;;;6.40;;
25758;SDS011;13604;52.496;13.456;2023-01-09T11:53:25;12.98;;;7.03;;
25758;SDS011;13604;52.496;13.456;2023-01-09T11:55:58;8.57;;;5.93;;
25758;SDS011;13604;52.496;13.456;2023-01-09T11:58:32;10.85;;;7.22;;
25758;SDS011;13604;52.496;13.456;2023-01-09T12:09:23;9.05;;;5.80;;
25758;SDS011;13604;52.496;13.456;2023-01-09T12:14:59;10.68;;;4.63;;
25758;SDS011;13604;52.496;13.456;2023-01-09T12:20:19;6.82;;;4.00;;
25758;SDS011;13604;52.496;13.456;2023-01-09T12:26:13;7.85;;;3.20;;
25758;SDS011;13604;52.496;13.456;2023-01-09T12:31:47;7.05;;;2.95;;
25758;SDS011;13604;52.496;13.456;2023-01-09T12:34:27;6.75;;;4.20;;
25758;SDS011;13604;52.496;13.456;2023-01-09T12:37:10;7.28;;;2.95;;
25758;SDS011;13604;52.496;13.456;2023-01-09T12:40:21;5.97;;;2.70;;
25758;SDS011;13604;52.496;13.456;2023-01-09T12:43:01;7.72;;;2.78;;
25758;SDS011;13604;52.496;13.456;2023-01-09T12:45:48;9.35;;;3.00;;
25758;SDS011;13604;52.496;13.456;2023-01-09T12:48:24;6.15;;;2.80;;
25758;SDS011;13604;52.496;13.456;2023-01-09T12:53:38;5.95;;;2.22;;
25758;SDS011;13604;52.496;13.456;2023-01-09T12:56:15;3.83;;;2.20;;
25758;SDS011;13604;52.496;13.456;2023-01-09T12:58:59;5.65;;;2.55;;
25758;SDS011;13604;52.496;13.456;2023-01-09T13:01:46;4.90;;;2.47;;
25758;SDS011;13604;52.496;13.456;2023-01-09T13:04:14;8.40;;;2.90;;
25758;SDS011;13604;52.496;13.456;2023-01-09T13:06:44;10.55;;;3.33;;
25758;SDS011;13604;52.496;13.456;2023-01-09T13:09:23;7.82;;;3.47;;
25758;SDS011;13604;52.496;13.456;2023-01-09T13:12:13;6.80;;;3.00;;
25758;SDS011;13604;52.496;13.456;2023-01-09T13:15:02;10.30;;;2.40;;
25758;SDS011;13604;52.496;13.456;2023-01-09T13:20:18;8.80;;;2.75;;
25758;SDS011;13604;52.496;13.456;2023-01-09T13:22:53;10.48;;;3.25;;
25758;SDS011;13604;52.496;13.456;2023-01-09T13:25:33;6.80;;;2.10;;
25758;SDS011;13604;52.496;13.456;2023-01-09T13:28:04;5.97;;;2.50;;
25758;SDS011;13604;52.496;13.456;2023-01-09T13:33:52;5.05;;;2.53;;
25758;SDS011;13604;52.496;13.456;2023-01-09T13:36:24;6.80;;;2.10;;
25758;SDS011;13604;52.496;13.456;2023-01-09T13:38:52;7.20;;;2.28;;
25758;SDS011;13604;52.496;13.456;2023-01-09T13:41:23;3.92;;;2.08;;
25758;SDS011;13604;52.496;13.456;2023-01-09T13:44:22;5.00;;;1.88;;
25758;SDS011;13604;52.496;13.456;2023-01-09T13:46:53;7.70;;;2.22;;
25758;SDS011;13604;52.496;13.456;2023-01-09T13:59:47;5.50;;;1.90;;
25758;SDS011;13604;52.496;13.456;2023-01-09T14:02:52;6.20;;;2.45;;
25758;SDS011;13604;52.496;13.456;2023-01-09T14:07:48;6.40;;;2.20;;
25758;SDS011;13604;52.496;13.456;2023-01-09T14:10:20;4.75;;;2.03;;
25758;SDS011;13604;52.496;13.456;2023-01-09T14:12:48;7.95;;;2.78;;
25758;SDS011;13604;52.496;13.456;2023-01-09T14:15:23;8.70;;;2.75;;
25758;SDS011;13604;52.496;13.456;2023-01-09T14:17:58;6.93;;;2.72;;
25758;SDS011;13604;52.496;13.456;2023-01-09T14:20:29;7.70;;;3.28;;
25758;SDS011;13604;52.496;13.456;2023-01-09T14:23:00;7.88;;;2.83;;
25758;SDS011;13604;52.496;13.456;2023-01-09T14:25:27;8.23;;;3.35;;
25758;SDS011;13604;52.496;13.456;2023-01-09T14:35:42;6.45;;;2.40;;
25758;SDS011;13604;52.496;13.456;2023-01-09T14:38:31;8.38;;;3.03;;
25758;SDS011;13604;52.496;13.456;2023-01-09T14:41:20;7.72;;;3.28;;
25758;SDS011;13604;52.496;13.456;2023-01-09T14:44:21;7.95;;;3.28;;
25758;SDS011;13604;52.496;13.456;2023-01-09T14:46:59;9.00;;;3.10;;
25758;SDS011;13604;52.496;13.456;2023-01-09T14:49:32;9.88;;;3.22;;
25758;SDS011;13604;52.496;13.456;2023-01-09T14:52:02;6.32;;;2.75;;
25758;SDS011;13604;52.496;13.456;2023-01-09T14:54:40;5.65;;;3.17;;
25758;SDS011;13604;52.496;13.456;2023-01-09T14:57:26;13.50;;;3.60;;
25758;SDS011;13604;52.496;13.456;2023-01-09T15:00:04;7.75;;;2.70;;
25758;SDS011;13604;52.496;13.456;2023-01-09T15:02:39;9.10;;;3.08;;
25758;SDS011;13604;52.496;13.456;2023-01-09T15:05:06;16.85;;;3.55;;
25758;SDS011;13604;52.496;13.456;2023-01-09T15:07:39;17.33;;;3.90;;
25758;SDS011;13604;52.496;13.456;2023-01-09T15:12:45;10.25;;;3.85;;
25758;SDS011;13604;52.496;13.456;2023-01-09T15:15:12;7.53;;;3.20;;
25758;SDS011;13604;52.496;13.456;2023-01-09T15:17:39;9.15;;;3.20;;
25758;SDS011;13604;52.496;13.456;2023-01-09T15:20:08;6.78;;;3.63;;
25758;SDS011;13604;52.496;13.456;2023-01-09T15:22:42;7.32;;;3.30;;
25758;SDS011;13604;52.496;13.456;2023-01-09T15:25:16;5.70;;;3.00;;
25758;SDS011;13604;52.496;13.456;2023-01-09T15:27:48;9.57;;;3.22;;
25758;SDS011;13604;52.496;13.456;2023-01-09T15:30:22;7.35;;;3.47;;
25758;SDS011;13604;52.496;13.456;2023-01-09T15:32:54;9.25;;;3.42;;
25758;SDS011;13604;52.496;13.456;2023-01-09T15:35:20;9.55;;;3.67;;
25758;SDS011;13604;52.496;13.456;2023-01-09T15:37:45;12.35;;;6.35;;
25758;SDS011;13604;52.496;13.456;2023-01-09T15:40:16;8.00;;;4.00;;
25758;SDS011;13604;52.496;13.456;2023-01-09T15:42:46;10.45;;;3.72;;
25758;SDS011;13604;52.496;13.456;2023-01-09T15:45:30;14.23;;;4.53;;
25758;SDS011;13604;52.496;13.456;2023-01-09T15:48:20;9.02;;;4.15;;
25758;SDS011;13604;52.496;13.456;2023-01-09T15:50:55;8.73;;;3.40;;
25758;SDS011;13604;52.496;13.456;2023-01-09T15:53:25;11.18;;;4.15;;
25758;SDS011;13604;52.496;13.456;2023-01-09T15:58:37;11.85;;;5.00;;
25758;SDS011;13604;52.496;13.456;2023-01-09T16:01:24;15.63;;;5.93;;
25758;SDS011;13604;52.496;13.456;2023-01-09T16:04:03;11.25;;;5.13;;
25758;SDS011;13604;52.496;13.456;2023-01-09T16:06:31;10.88;;;5.15;;
25758;SDS011;13604;52.496;13.456;2023-01-09T16:09:00;11.93;;;4.57;;
25758;SDS011;13604;52.496;13.456;2023-01-09T16:13:57;11.55;;;4.97;;
25758;SDS011;13604;52.496;13.456;2023-01-09T16:16:33;11.73;;;4.55;;
25758;SDS011;13604;52.496;13.456;2023-01-09T16:18:59;15.27;;;4.95;;
25758;SDS011;13604;52.496;13.456;2023-01-09T16:23:56;13.38;;;4.82;;
25758;SDS011;13604;52.496;13.456;2023-01-09T16:26:24;8.10;;;4.20;;
25758;SDS011;13604;52.496;13.456;2023-01-09T16:28:51;11.95;;;4.78;;
25758;SDS011;13604;52.496;13.456;2023-01-09T16:33:56;14.90;;;4.43;;
25758;SDS011;13604;52.496;13.456;2023-01-09T16:36:25;5.35;;;3.47;;
25758;SDS011;13604;52.496;13.456;2023-01-09T16:38:52;8.25;;;3.95;;
25758;SDS011;13604;52.496;13.456;2023-01-09T16:41:21;8.35;;;3.45;;
25758;SDS011;13604;52.496;13.456;2023-01-09T16:44:05;9.15;;;3.83;;
25758;SDS011;13604;52.496;13.456;2023-01-09T16:46:34;11.00;;;4.70;;